Artikler
   Vis nr. 
Nr. Artikkeltittel Dato Skribent Treff
1 Tur/retur Guayaquil – Salinas (SEGU – SESA) lørdag 6.1.2007 med Andreas Andersen fredag 26. januar 2007 Helge Aasen 2501
 
 
METAR
2020/01/25 06:20 ENCN 250620Z 23006KT CAVOK 04/02 Q1012
TAF
2020/01/25 06:38 TAF ENCN 250500Z 2506/2515 22008KT 9999 FEW040 BKN080 BECMG 2509/2511 BKN008
LN-KFK
Operativ VFR-natt
VFR dag
08:01 - 17:20
Brannvakt
Inaktiv
Banner
Banner
Banner
Banner
Banner